Cape May Court House, NJ

4:33 PM EST on December 25, 2014 (GMT -0500)
Easy St | Change Station
CLOSE
Current Station
Personal Weather Station
Location: South Dennis, NJ
Elevation: 36 ft
Nearby Weather Stations

Elev 36 ft 39.16 °N, 74.82 °W | Updated 3 minutes ago

Partly Cloudy
Partly Cloudy
48.9 °F
Feels Like 49 °F
N
0.9
Wind Variable Wind from North

Today
High -- | Low -- °F
--% Chance of Precip.
Yesterday
High -- | Low -- °F
Precip. -- in
7:16 AM 4:42 PM
Waxing Crescent, 19% visible
Pressure 29.99 in
Visibility 10.0 miles
Clouds Few 5000 ft
Windchill 49 °F
Dew Point 36 °F
Humidity 62%
Rainfall -999.00 in
Snow Depth Not available.
UV 0 out of 12
Pollen .10 out of 12
Air Quality Not available.
Flu Activity Not available.
METAR KWWD 252115Z AUTO 30011G17KT 10SM FEW050 09/M01 A2999 RMK AO1

More Conditions Fewer Conditions

Pressure 29.99 in
Visibility 10.0 miles
Clouds Few 5000 ft
Windchill 49 °F
Dew Point 36 °F
Humidity 62%
Rainfall -999.00 in
Snow Depth Not available.
UV 0 out of 12
Pollen .10 out of 12
Air Quality Not available.
Flu Activity Not available.
METAR KWWD 252115Z AUTO 30011G17KT 10SM FEW050 09/M01 A2999 RMK AO1

More Conditions Fewer Conditions

10-Day Weather Forecast

Almanac

Astronomy

Dec. 25, 2014 Rise Set
Actual Time
Civil Twilight
Nautical Twilight
Astronomical Twilight
Moon
Length of Visible Light
Length of Day
Tomorrow will be .
, % of the Moon is Illuminated

Today's Extremes

State Highs State Lows

Community

WunderPhotos

Upload Photos

1,780,402 photos uploaded!

WunderBlogs® & News

Nearby

Air Quality

  Air Quality AQ Index Pollutant
Not available.

Snow Depth

Station Depth Elevation

Earthquake Activity

City Distance Mag. Time & Date
Minimum magnitude displayed is 2.5.

Coastal Water Temperatures

Place Temperature

Nearby Weather Stations